WAJJ/DJJ METAR and TAF weather

Enter ICAO airport designator
Station Type Date Time Source
WAJJ METAR 2021/04/13 22:30 UTC NOAA

WAJJ 132230Z 04002KT -9000 -RA SCT010 24/23 Q1009 NOSIG


Station Type Date Time Source
WAJJ Decoded METAR 2021/04/13 22:30 UTC NOAA

Jayapura / Sentani, Indonesia (WAJJ) 02-34S 140-29E 99M
Apr 13, 2021 - 06:30 PM EDT / 2021.04.13 2230 UTC
Wind: from the NE (040 degrees) at 2 MPH (2 KT):0
Sky conditions: partly cloudy
Weather: light rain
Temperature: 75 F (24 C)
Dew Point: 73 F (23 C)
Relative Humidity: 94%
Pressure (altimeter): 29.80 in. Hg (1009 hPa)
ob: WAJJ 132230Z 04002KT -9000 -RA SCT010 24/23 Q1009 NOSIG
cycle: 22

Station Type Date Time Source
WAJJ TAF 2013/03/11 12:00 UTC NOAA

TAF WAJJ 111100Z 1112/1212 29006KT 5000 HZ SCT016
TEMPO 1113/1121 4000 RA FEW014CB
BECMG 1200/1202 28012KT 9999
TEMPO 1207/1212 6000 RA FEW014CB

Example: see airport list